Wetter EDVM 251750Z 25004KT 13/10 Q1011